Time;durP1;ratioP1;P1;durP2;ratioP2;P2;SDS_P1;SDS_P2;PMS_P1;PMS_P2;Temp;Humidity;BMP_temperature;BMP_pressure;BME280_temperature;BME280_humidity;BME280_pressure;Samples;Min_cycle;Max_cycle;Signal;HPM_P1;HPM_P2
2021/06/06 00:00:50;;;;;;;11.10;2.85;;;43.00;11.50;;;;;;5038941;28;20065;-68
2021/06/06 00:03:24;;;;;;;10.85;2.92;;;42.90;12.20;;;;;;5033195;28;20731;-67
2021/06/06 00:06:05;;;;;;;16.75;3.10;;;42.90;11.60;;;;;;5039184;28;20093;-68
2021/06/06 00:08:32;;;;;;;17.48;2.50;;;42.90;12.40;;;;;;5033632;28;20065;-68
2021/06/06 00:11:16;;;;;;;10.88;2.47;;;42.90;11.90;;;;;;5044782;28;20069;-68
2021/06/06 00:13:44;;;;;;;13.85;2.78;;;42.80;12.20;;;;;;5036690;28;20211;-68
2021/06/06 00:16:15;;;;;;;12.43;2.78;;;42.80;11.70;;;;;;5043394;28;20068;-68
2021/06/06 00:18:42;;;;;;;12.80;2.53;;;42.80;12.60;;;;;;5032756;28;20152;-68
2021/06/06 00:21:09;;;;;;;7.63;2.88;;;42.80;12.90;;;;;;5028905;28;20117;-70
2021/06/06 00:23:36;;;;;;;10.43;2.55;;;42.70;12.50;;;;;;5034311;28;20077;-69
2021/06/06 00:26:04;;;;;;;11.60;2.70;;;42.70;12.70;;;;;;5035561;28;20176;-72
2021/06/06 00:28:31;;;;;;;14.85;3.08;;;42.60;12.30;;;;;;5043114;28;20077;-68
2021/06/06 01:37:23;;;;;;;14.95;2.50;;;40.70;13.10;;;;;;4763675;29;20143;-65
2021/06/06 01:40:10;;;;;;;10.38;2.85;;;40.60;13.90;;;;;;4782509;30;20099;-65
2021/06/06 01:42:45;;;;;;;17.27;2.92;;;40.50;14.00;;;;;;4770960;30;20080;-64
2021/06/06 01:45:29;;;;;;;18.35;3.00;;;40.40;13.10;;;;;;4769428;30;20099;-66
2021/06/06 01:48:00;;;;;;;14.10;2.90;;;40.30;13.10;;;;;;4771123;30;20108;-64
2021/06/06 01:50:30;;;;;;;13.68;3.00;;;40.20;13.10;;;;;;4768413;30;20082;-67
2021/06/06 01:53:00;;;;;;;13.15;2.65;;;40.10;13.30;;;;;;4769734;30;20076;-66
2021/06/06 01:55:31;;;;;;;16.75;3.05;;;39.90;13.40;;;;;;4770712;30;20076;-65
2021/06/06 01:58:03;;;;;;;13.13;2.85;;;39.80;13.50;;;;;;4770784;30;20089;-65
2021/06/06 02:00:42;;;;;;;14.30;2.60;;;39.70;13.80;;;;;;4769200;30;20080;-65
2021/06/06 02:03:09;;;;;;;14.93;2.78;;;39.50;13.50;;;;;;4769684;30;20092;-65
2021/06/06 02:05:36;;;;;;;25.02;3.40;;;39.40;13.50;;;;;;4769981;30;20104;-66
2021/06/06 02:08:06;;;;;;;21.13;3.30;;;39.20;13.60;;;;;;4769654;30;20088;-65
2021/06/06 02:10:39;;;;;;;21.25;2.90;;;39.10;13.80;;;;;;4770241;30;20076;-66
2021/06/06 02:13:32;;;;;;;23.15;2.75;;;39.00;14.00;;;;;;4770716;30;20092;-65
2021/06/06 02:16:03;;;;;;;25.63;3.30;;;38.90;14.10;;;;;;4766421;30;20179;-66
2021/06/06 02:18:30;;;;;;;28.00;3.00;;;38.70;14.40;;;;;;4769997;30;20153;-65
2021/06/06 02:20:58;;;;;;;16.95;3.30;;;38.50;14.40;;;;;;4770108;30;20084;-66
2021/06/06 02:23:28;;;;;;;22.45;3.47;;;38.50;14.60;;;;;;4770183;30;20087;-65
2021/06/06 02:26:30;;;;;;;29.85;3.70;;;38.40;14.70;;;;;;4769064;30;20100;-66
2021/06/06 02:29:10;;;;;;;18.05;3.00;;;38.20;14.80;;;;;;4767789;30;20121;-65
2021/06/06 02:32:02;;;;;;;17.88;2.70;;;38.20;15.00;;;;;;4769848;30;20076;-65
2021/06/06 02:34:38;;;;;;;21.73;3.05;;;38.10;15.10;;;;;;4744347;30;20093;-65
2021/06/06 02:37:11;;;;;;;;;;;37.90;15.10;;;;;;4770224;30;20118;-65
2021/06/06 02:39:41;;;;;;;14.05;3.05;;;37.90;15.10;;;;;;4769877;30;19966;-65
2021/06/06 02:42:13;;;;;;;17.40;3.25;;;37.80;15.20;;;;;;4768676;30;20423;-66
2021/06/06 02:44:53;;;;;;;19.42;3.10;;;37.60;15.30;;;;;;4769558;30;20098;-65
2021/06/06 02:47:30;;;;;;;16.42;3.03;;;37.50;15.40;;;;;;4768598;30;20087;-66
2021/06/06 02:50:00;;;;;;;19.05;3.00;;;37.50;15.80;;;;;;4768779;30;20084;-65
2021/06/06 02:52:39;;;;;;;18.52;3.58;;;37.30;15.70;;;;;;4767709;30;20557;-66
2021/06/06 02:55:20;;;;;;;20.80;3.30;;;37.20;15.60;;;;;;4769398;30;20092;-65
2021/06/06 02:58:06;;;;;;;18.20;3.42;;;37.10;15.70;;;;;;4769823;30;20076;-65
2021/06/06 03:00:43;;;;;;;14.43;4.57;;;37.00;15.90;;;;;;4769779;30;20076;-65
2021/06/06 03:03:20;;;;;;;21.13;3.28;;;36.90;16.00;;;;;;4769351;30;20083;-66
2021/06/06 03:05:48;;;;;;;16.67;2.80;;;36.80;16.20;;;;;;4770075;30;20465;-65
2021/06/06 03:08:15;;;;;;;16.40;3.08;;;36.60;16.40;;;;;;4770247;30;20221;-66
2021/06/06 03:10:43;;;;;;;19.60;3.25;;;36.60;16.50;;;;;;4769725;30;20076;-66
2021/06/06 03:13:45;;;;;;;21.33;3.35;;;36.40;16.60;;;;;;4770282;30;20289;-66
2021/06/06 03:16:14;;;;;;;16.40;3.17;;;37.00;17.40;;;;;;4766522;30;20088;-65
2021/06/06 03:18:43;;;;;;;23.55;3.30;;;36.10;33.30;;;;;;4769483;30;20093;-65
2021/06/06 03:21:22;;;;;;;15.65;3.60;;;35.90;33.80;;;;;;4769175;30;20035;-64
2021/06/06 03:24:01;;;;;;;14.88;2.90;;;35.70;33.50;;;;;;4769425;30;20089;-63
2021/06/06 03:26:28;;;;;;;15.23;3.08;;;35.80;39.70;;;;;;4768275;30;20044;-64
2021/06/06 03:28:55;;;;;;;8.13;2.60;;;35.30;51.90;;;;;;4769211;30;20163;-64
2021/06/06 03:31:28;;;;;;;13.88;3.15;;;35.50;17.80;;;;;;4769198;30;20032;-65
2021/06/06 03:34:03;;;;;;;17.48;3.08;;;35.50;18.30;;;;;;4767085;30;20085;-64
2021/06/06 03:36:35;;;;;;;13.10;3.72;;;35.30;18.40;;;;;;4769113;30;20119;-66
2021/06/06 03:39:07;;;;;;;21.63;3.08;;;35.20;18.70;;;;;;4768522;30;20499;-65
2021/06/06 03:41:34;;;;;;;20.98;2.88;;;;;;;;;;4769120;30;20415;-65
2021/06/06 03:44:00;;;;;;;13.48;2.60;;;;;;;;;;4768987;30;20129;-65
2021/06/06 03:46:29;;;;;;;12.43;2.67;;;34.80;18.50;;;;;;4769389;30;20119;-65
2021/06/06 03:48:56;;;;;;;15.18;2.45;;;34.80;19.60;;;;;;4768075;30;20076;-64
2021/06/06 03:51:24;;;;;;;19.30;3.13;;;34.70;19.10;;;;;;4768973;30;20253;-64
2021/06/06 03:53:50;;;;;;;21.52;3.70;;;34.60;19.10;;;;;;4769079;30;20080;-64
2021/06/06 03:56:17;;;;;;;16.70;3.30;;;34.50;19.30;;;;;;4769190;30;20476;-64
2021/06/06 03:58:44;;;;;;;15.38;5.00;;;34.40;19.30;;;;;;4768844;30;20076;-65
2021/06/06 04:01:11;;;;;;;17.90;5.38;;;34.40;19.40;;;;;;4769272;30;20438;-64
2021/06/06 04:03:38;;;;;;;26.77;5.47;;;34.30;19.50;;;;;;4768898;30;20072;-65
2021/06/06 04:06:06;;;;;;;24.13;6.18;;;34.10;19.60;;;;;;4768705;30;20466;-65
2021/06/06 04:08:34;;;;;;;23.85;4.40;;;34.00;19.70;;;;;;4769065;30;20554;-65
2021/06/06 04:11:01;;;;;;;29.88;5.55;;;33.90;19.70;;;;;;4768790;30;20116;-65
2021/06/06 04:13:28;;;;;;;23.65;5.40;;;33.80;19.90;;;;;;4770098;30;20076;-63
2021/06/06 04:15:54;;;;;;;27.02;4.43;;;33.80;20.00;;;;;;4772291;30;20076;-64
2021/06/06 04:18:24;;;;;;;20.33;3.30;;;33.70;20.10;;;;;;4770989;30;20080;-65
2021/06/06 04:20:53;;;;;;;40.78;3.75;;;33.70;20.00;;;;;;4771194;30;20088;-64
2021/06/06 04:23:20;;;;;;;22.88;3.92;;;33.70;20.00;;;;;;4771199;30;20087;-64
2021/06/06 04:25:47;;;;;;;17.67;3.47;;;33.60;20.10;;;;;;4772101;30;20136;-65
2021/06/06 04:28:14;;;;;;;31.85;3.97;;;33.60;20.30;;;;;;4772027;30;20083;-64
2021/06/06 04:30:40;;;;;;;36.42;3.88;;;33.60;20.40;;;;;;4770898;30;20080;-65
2021/06/06 04:33:08;;;;;;;19.90;3.80;;;33.60;20.30;;;;;;4770836;30;20211;-65
2021/06/06 04:35:36;;;;;;;16.08;3.10;;;33.50;20.60;;;;;;4772119;30;20584;-65
2021/06/06 04:38:04;;;;;;;30.30;4.13;;;33.50;20.60;;;;;;4771866;30;20123;-65
2021/06/06 04:40:31;;;;;;;37.25;4.30;;;33.40;20.80;;;;;;4772160;30;20076;-65
2021/06/06 04:42:57;;;;;;;26.45;3.80;;;33.30;20.70;;;;;;4771823;30;20100;-65
2021/06/06 04:45:24;;;;;;;29.02;3.67;;;33.30;20.80;;;;;;4771772;30;20157;-65
2021/06/06 04:47:50;;;;;;;30.02;3.90;;;33.20;20.90;;;;;;4770716;30;20439;-65
2021/06/06 04:50:17;;;;;;;24.77;3.90;;;33.10;21.20;;;;;;4771645;30;20087;-64
2021/06/06 04:52:44;;;;;;;22.63;3.95;;;33.00;21.30;;;;;;4772038;30;20076;-66
2021/06/06 04:55:15;;;;;;;19.55;3.72;;;32.90;21.50;;;;;;4772039;30;20092;-65
2021/06/06 04:57:42;;;;;;;15.32;3.78;;;32.80;21.70;;;;;;4771112;30;20073;-66
2021/06/06 05:00:20;;;;;;;35.08;4.43;;;32.60;21.80;;;;;;4771779;30;20136;-65
2021/06/06 05:02:46;;;;;;;22.17;4.07;;;32.60;21.80;;;;;;4771893;30;20084;-66
2021/06/06 05:05:13;;;;;;;20.85;4.03;;;32.50;21.90;;;;;;4771690;30;20447;-63
2021/06/06 05:07:40;;;;;;;21.98;3.20;;;32.40;22.00;;;;;;4771522;30;20099;-65
2021/06/06 05:10:08;;;;;;;21.25;3.60;;;32.30;22.10;;;;;;4771631;30;20132;-64
2021/06/06 05:12:35;;;;;;;15.40;3.92;;;32.30;22.30;;;;;;4771556;30;20083;-64
2021/06/06 05:15:01;;;;;;;21.60;3.00;;;32.20;22.30;;;;;;4770570;30;20088;-64
2021/06/06 05:17:28;;;;;;;22.75;3.03;;;32.10;22.40;;;;;;4771536;30;20072;-65
2021/06/06 05:19:54;;;;;;;27.10;3.10;;;32.00;22.50;;;;;;4771719;30;20556;-65
2021/06/06 05:22:21;;;;;;;20.65;2.97;;;32.00;22.70;;;;;;4771402;30;20142;-65
2021/06/06 05:24:48;;;;;;;20.13;3.03;;;31.90;22.70;;;;;;4769681;30;20100;-65
2021/06/06 05:27:15;;;;;;;19.48;3.70;;;31.90;22.70;;;;;;4771093;30;20162;-64
2021/06/06 05:29:41;;;;;;;13.77;2.97;;;31.80;22.70;;;;;;4771764;30;20084;-65
2021/06/06 05:32:08;;;;;;;15.73;2.88;;;31.70;22.80;;;;;;4771109;30;20103;-65
2021/06/06 05:34:34;;;;;;;27.17;3.55;;;31.70;22.90;;;;;;4770925;30;20076;-66
2021/06/06 05:37:01;;;;;;;18.55;3.42;;;31.60;23.00;;;;;;4770842;30;20184;-66
2021/06/06 05:39:27;;;;;;;23.95;2.83;;;31.60;23.40;;;;;;4770799;30;20072;-66
2021/06/06 05:41:54;;;;;;;20.30;3.45;;;31.50;23.30;;;;;;4772922;30;20099;-66
2021/06/06 05:44:22;;;;;;;13.15;2.63;;;31.50;23.50;;;;;;4770717;30;20446;-65
2021/06/06 05:46:49;;;;;;;19.80;3.08;;;31.40;23.40;;;;;;4770800;30;20459;-66
2021/06/06 05:49:15;;;;;;;24.52;2.75;;;31.40;23.60;;;;;;4768881;30;20096;-66
2021/06/06 05:51:42;;;;;;;14.30;2.97;;;31.30;23.80;;;;;;4770173;30;20167;-66
2021/06/06 05:54:08;;;;;;;17.60;3.00;;;31.20;24.20;;;;;;4769991;30;20072;-66
2021/06/06 05:56:35;;;;;;;14.10;2.47;;;31.10;24.40;;;;;;4768978;30;20076;-65
2021/06/06 05:59:01;;;;;;;14.73;3.03;;;30.90;24.30;;;;;;4769220;30;20159;-66
2021/06/06 06:01:28;;;;;;;15.60;2.20;;;30.80;24.40;;;;;;4769887;30;20564;-65
2021/06/06 06:03:54;;;;;;;12.32;3.30;;;30.80;24.20;;;;;;4768786;30;20084;-65
2021/06/06 06:06:21;;;;;;;15.23;3.65;;;30.70;24.30;;;;;;4769060;30;20443;-65
2021/06/06 06:08:47;;;;;;;15.60;2.80;;;30.60;23.90;;;;;;4770033;30;20234;-65
2021/06/06 06:11:20;;;;;;;11.23;3.00;;;30.40;24.00;;;;;;4769532;30;20084;-64
2021/06/06 06:13:49;;;;;;;16.52;2.85;;;30.40;24.00;;;;;;4768218;30;20133;-65
2021/06/06 06:16:19;;;;;;;18.00;2.83;;;30.30;23.70;;;;;;4770060;30;20084;-66
2021/06/06 06:18:48;;;;;;;15.05;2.60;;;30.20;23.80;;;;;;4769391;30;20434;-63
2021/06/06 06:21:16;;;;;;;8.25;2.58;;;30.20;23.90;;;;;;4769651;30;20188;-66
2021/06/06 06:23:44;;;;;;;18.60;4.25;;;30.20;23.70;;;;;;4769714;30;20087;-65
2021/06/06 06:26:11;;;;;;;15.88;6.05;;;30.10;23.80;;;;;;4769410;30;20674;-65
2021/06/06 06:28:38;;;;;;;31.92;10.60;;;30.00;23.80;;;;;;4768461;30;20088;-66
2021/06/06 06:31:05;;;;;;;24.20;10.27;;;30.10;24.00;;;;;;4768327;30;20178;-65
2021/06/06 06:33:33;;;;;;;40.42;12.57;;;30.00;24.00;;;;;;4769555;30;20160;-65
2021/06/06 06:35:59;;;;;;;32.20;12.02;;;30.00;23.80;;;;;;4768522;30;20515;-66
2021/06/06 06:38:27;;;;;;;28.73;11.10;;;30.00;23.80;;;;;;4769481;30;20128;-65
2021/06/06 06:40:54;;;;;;;31.85;11.00;;;30.00;24.40;;;;;;4768190;30;20088;-64
2021/06/06 06:43:20;;;;;;;29.90;10.77;;;29.90;24.00;;;;;;4768603;30;20088;-65
2021/06/06 06:45:47;;;;;;;16.25;7.22;;;29.90;24.10;;;;;;4767925;30;20130;-66
2021/06/06 06:48:16;;;;;;;20.40;5.10;;;29.80;23.70;;;;;;4768141;30;20091;-65
2021/06/06 06:50:43;;;;;;;11.32;3.28;;;29.80;23.40;;;;;;4768701;30;20076;-65
2021/06/06 06:53:10;;;;;;;16.17;2.80;;;29.70;23.20;;;;;;4768553;30;20080;-65
2021/06/06 06:55:37;;;;;;;18.67;3.50;;;29.70;23.30;;;;;;4767553;30;20088;-68
2021/06/06 06:58:06;;;;;;;20.77;3.35;;;29.70;23.60;;;;;;4768376;30;20084;-62
2021/06/06 07:00:37;;;;;;;13.02;3.10;;;29.70;23.40;;;;;;4768459;30;20553;-62
2021/06/06 07:03:04;;;;;;;12.95;2.60;;;29.70;23.10;;;;;;4768809;30;20515;-61
2021/06/06 07:05:31;;;;;;;25.85;3.50;;;29.90;23.10;;;;;;4768527;30;20104;-64
2021/06/06 07:07:57;;;;;;;17.23;2.70;;;30.00;23.00;;;;;;4769382;30;20092;-65
2021/06/06 07:10:29;;;;;;;26.98;3.22;;;30.10;22.40;;;;;;4766168;30;20087;-63
2021/06/06 07:12:56;;;;;;;18.15;4.13;;;30.20;22.50;;;;;;4768706;30;20551;-62
2021/06/06 07:15:22;;;;;;;12.95;2.55;;;30.20;22.30;;;;;;4768306;30;20084;-60
2021/06/06 07:17:49;;;;;;;12.13;2.17;;;30.20;22.10;;;;;;4768414;30;20068;-62
2021/06/06 07:20:22;;;;;;;14.07;2.33;;;30.10;22.20;;;;;;4768666;30;20084;-62
2021/06/06 07:22:48;;;;;;;12.60;2.50;;;30.00;22.40;;;;;;4768321;30;20084;-62
2021/06/06 07:25:18;;;;;;;20.63;2.30;;;29.90;22.40;;;;;;4768351;30;20104;-62
2021/06/06 07:27:46;;;;;;;10.02;2.30;;;29.60;22.50;;;;;;4767596;30;20085;-61
2021/06/06 07:30:16;;;;;;;12.50;2.40;;;29.50;22.90;;;;;;4767843;30;20095;-63
2021/06/06 07:32:43;;;;;;;11.65;2.28;;;29.40;22.70;;;;;;4768375;30;20076;-62
2021/06/06 07:35:12;;;;;;;11.93;1.92;;;29.40;22.90;;;;;;4767979;30;20095;-61
2021/06/06 07:37:38;;;;;;;10.00;2.03;;;29.50;22.90;;;;;;4768107;30;20142;-61
2021/06/06 07:40:08;;;;;;;18.38;2.90;;;29.50;22.80;;;;;;4768443;30;20458;-62
2021/06/06 07:42:34;;;;;;;16.08;3.88;;;29.40;23.30;;;;;;4768389;30;20203;-62
2021/06/06 07:45:03;;;;;;;15.43;4.13;;;29.30;22.90;;;;;;4769452;30;20092;-62
2021/06/06 07:47:30;;;;;;;17.00;4.45;;;29.10;22.90;;;;;;4769055;30;20131;-62
2021/06/06 07:49:56;;;;;;;10.52;3.47;;;29.30;23.40;;;;;;4772362;30;20140;-61
2021/06/06 07:52:23;;;;;;;11.05;3.20;;;29.30;22.90;;;;;;4771887;30;20171;-62
2021/06/06 07:54:50;;;;;;;14.13;3.17;;;29.40;22.80;;;;;;4771938;30;20084;-62
2021/06/06 07:57:17;;;;;;;9.50;2.80;;;29.40;22.70;;;;;;4772249;30;20111;-62
2021/06/06 07:59:43;;;;;;;15.95;2.53;;;29.40;22.60;;;;;;4770684;30;20091;-61
2021/06/06 08:02:10;;;;;;;16.02;3.05;;;29.40;22.70;;;;;;4771244;30;20088;-64
2021/06/06 08:04:37;;;;;;;17.80;3.20;;;29.40;22.60;;;;;;4771887;30;20513;-62
2021/06/06 08:07:04;;;;;;;16.52;2.80;;;29.30;22.50;;;;;;4771530;30;20084;-62
2021/06/06 08:09:37;;;;;;;13.18;3.80;;;29.20;22.50;;;;;;4771043;30;20107;-64
2021/06/06 08:12:04;;;;;;;17.92;4.75;;;29.20;23.30;;;;;;4770893;30;20068;-62
2021/06/06 08:14:31;;;;;;;25.23;10.23;;;29.10;22.90;;;;;;4771089;30;20080;-62
2021/06/06 08:16:58;;;;;;;39.88;18.08;;;29.10;22.90;;;;;;4771455;30;20087;-61
2021/06/06 08:19:24;;;;;;;36.38;17.15;;;29.00;22.80;;;;;;4771615;30;20088;-62
2021/06/06 08:21:51;;;;;;;37.58;15.80;;;28.90;22.90;;;;;;4770298;30;20080;-62
2021/06/06 08:24:18;;;;;;;25.95;13.52;;;28.70;22.70;;;;;;4771633;30;20088;-61
2021/06/06 08:26:45;;;;;;;27.58;13.18;;;28.80;22.90;;;;;;4771378;30;20096;-61
2021/06/06 08:29:12;;;;;;;25.33;8.77;;;28.90;22.90;;;;;;4770589;30;20095;-62
2021/06/06 08:31:41;;;;;;;14.65;6.40;;;28.90;22.70;;;;;;4770428;30;20176;-62
2021/06/06 08:34:09;;;;;;;17.35;4.20;;;28.80;22.70;;;;;;4770979;30;20083;-60
2021/06/06 08:36:40;;;;;;;14.70;3.47;;;28.70;22.90;;;;;;4770102;30;20108;-61
2021/06/06 08:39:10;;;;;;;17.10;2.97;;;28.80;22.90;;;;;;4770994;30;20176;-62
2021/06/06 08:41:46;;;;;;;14.07;2.60;;;28.70;22.50;;;;;;4771261;30;20088;-62
2021/06/06 08:44:28;;;;;;;10.73;2.72;;;28.50;22.50;;;;;;4770825;30;20087;-62
2021/06/06 08:47:00;;;;;;;14.57;2.30;;;28.40;22.50;;;;;;4770974;30;20492;-62
2021/06/06 08:49:38;;;;;;;11.63;2.97;;;28.50;22.40;;;;;;4771217;30;20076;-62
2021/06/06 08:52:37;;;;;;;13.32;2.72;;;28.90;40.30;;;;;;4770496;30;20555;-62
2021/06/06 08:55:47;;;;;;;10.68;2.65;;;28.60;36.10;;;;;;4760365;30;20099;-62
2021/06/06 08:58:34;;;;;;;10.63;2.00;;;28.50;22.10;;;;;;4752762;30;20103;-62
2021/06/06 09:01:09;;;;;;;8.63;1.95;;;28.40;22.30;;;;;;4770168;30;20084;-62
2021/06/06 09:03:36;;;;;;;8.98;1.67;;;28.40;22.50;;;;;;4770663;30;20079;-60
2021/06/06 09:06:08;;;;;;;9.20;1.90;;;28.40;22.60;;;;;;4769540;30;20222;-61
2021/06/06 09:08:38;;;;;;;10.55;2.20;;;28.40;22.60;;;;;;4770879;30;20089;-60
2021/06/06 09:11:11;;;;;;;12.70;2.28;;;28.40;22.70;;;;;;4769065;30;20076;-62
2021/06/06 09:13:38;;;;;;;9.98;1.88;;;28.30;22.60;;;;;;4770653;30;20072;-62
2021/06/06 09:16:17;;;;;;;14.65;2.25;;;28.00;22.50;;;;;;4770705;30;20084;-61
2021/06/06 09:18:48;;;;;;;11.73;2.13;;;28.00;22.70;;;;;;4770396;30;20084;-62
2021/06/06 09:21:18;;;;;;;10.65;1.98;;;27.80;22.70;;;;;;4769509;30;20077;-61
2021/06/06 09:23:47;;;;;;;16.85;2.08;;;27.80;22.80;;;;;;4767930;30;20450;-61
2021/06/06 09:26:19;;;;;;;14.85;2.30;;;27.80;22.80;;;;;;4769781;30;20100;-62
2021/06/06 09:28:48;;;;;;;8.55;1.85;;;27.70;22.80;;;;;;4769880;30;20092;-61
2021/06/06 09:31:18;;;;;;;11.68;2.38;;;27.60;22.70;;;;;;4769417;30;20099;-60
2021/06/06 09:33:44;;;;;;;16.73;2.47;;;27.70;22.70;;;;;;4768503;30;20079;-61
2021/06/06 09:36:27;;;;;;;13.35;2.33;;;27.60;22.60;;;;;;4770063;30;20380;-60
2021/06/06 09:39:03;;;;;;;15.15;2.55;;;27.50;22.60;;;;;;4771186;30;20085;-62
2021/06/06 09:41:38;;;;;;;12.43;3.03;;;27.50;22.60;;;;;;4772756;30;20080;-62
2021/06/06 09:44:07;;;;;;;22.13;3.40;;;;;;;;;;4773590;30;20082;-61
2021/06/06 09:46:34;;;;;;;20.95;3.53;;;27.50;21.90;;;;;;4772857;30;20145;-61
2021/06/06 09:49:09;;;;;;;10.70;3.20;;;27.60;22.40;;;;;;4773457;30;20072;-61
2021/06/06 09:51:36;;;;;;;19.45;3.33;;;27.60;22.10;;;;;;4772755;30;20083;-61
2021/06/06 09:54:14;;;;;;;11.15;3.35;;;27.70;22.20;;;;;;4770608;30;20095;-61
2021/06/06 09:56:48;;;;;;;14.85;3.38;;;27.70;22.30;;;;;;4769985;30;20657;-61
2021/06/06 09:59:18;;;;;;;14.52;3.38;;;27.70;22.40;;;;;;4770302;30;20088;-61
2021/06/06 10:02:02;;;;;;;13.85;3.22;;;27.70;22.60;;;;;;4772609;30;20599;-62
2021/06/06 10:04:38;;;;;;;11.52;3.05;;;27.60;22.60;;;;;;4770716;30;20080;-61
2021/06/06 10:07:37;;;;;;;14.63;3.75;;;27.60;22.60;;;;;;4770102;30;20087;-61
2021/06/06 10:10:18;;;;;;;15.60;3.88;;;27.60;22.80;;;;;;4763780;30;20092;-61
2021/06/06 10:12:48;;;;;;;14.43;3.20;;;27.60;23.00;;;;;;4769096;30;20171;-61
2021/06/06 10:15:41;;;;;;;15.32;3.13;;;27.50;23.70;;;;;;4769654;30;20442;-62
2021/06/06 10:18:18;;;;;;;22.70;3.42;;;27.60;24.80;;;;;;4769414;30;20088;-61
2021/06/06 10:20:53;;;;;;;16.90;3.70;;;27.50;26.40;;;;;;4767541;30;20084;-61
2021/06/06 10:23:28;;;;;;;17.33;3.15;;;27.40;27.30;;;;;;4769144;30;20083;-61
2021/06/06 10:26:14;;;;;;;15.45;3.10;;;27.30;28.10;;;;;;4768990;30;20103;-61
2021/06/06 10:28:52;;;;;;;26.67;2.97;;;27.20;29.40;;;;;;4768505;30;20091;-61
2021/06/06 10:31:33;;;;;;;19.73;3.08;;;27.20;29.70;;;;;;4768484;30;20079;-61
2021/06/06 10:34:02;;;;;;;12.18;2.90;;;27.10;30.80;;;;;;4768641;30;20088;-60
2021/06/06 10:36:33;;;;;;;14.10;3.25;;;27.00;31.90;;;;;;4769044;30;20575;-61
2021/06/06 10:39:01;;;;;;;16.60;2.85;;;26.80;32.70;;;;;;4769277;30;20076;-60
2021/06/06 10:41:41;;;;;;;14.18;2.92;;;26.80;33.00;;;;;;4768837;30;20084;-61
2021/06/06 10:44:23;;;;;;;16.05;3.00;;;26.70;33.30;;;;;;4768649;30;20073;-62
2021/06/06 10:47:21;;;;;;;14.70;2.72;;;26.60;33.50;;;;;;4768919;30;20110;-61
2021/06/06 10:49:58;;;;;;;18.23;2.28;;;26.60;33.50;;;;;;4768515;30;20191;-61
2021/06/06 10:52:28;;;;;;;14.05;3.13;;;26.60;33.70;;;;;;4769190;30;20600;-60
2021/06/06 10:54:59;;;;;;;20.33;3.03;;;26.70;33.90;;;;;;4768753;30;20084;-61
2021/06/06 10:57:26;;;;;;;10.23;2.47;;;26.60;34.10;;;;;;4768019;30;20078;-61
2021/06/06 11:00:01;;;;;;;13.63;2.80;;;26.50;34.60;;;;;;4768274;30;20081;-61
2021/06/06 11:02:30;;;;;;;14.52;2.67;;;26.40;34.80;;;;;;4768365;30;20080;-62
2021/06/06 11:05:00;;;;;;;14.00;2.72;;;26.40;35.00;;;;;;4768937;30;20145;-61
2021/06/06 11:07:38;;;;;;;12.60;3.17;;;26.30;35.00;;;;;;4769104;30;20224;-60
2021/06/06 11:10:30;;;;;;;14.40;3.05;;;26.30;35.20;;;;;;4768832;30;20142;-61
2021/06/06 11:12:57;;;;;;;11.82;2.78;;;26.30;35.40;;;;;;4768425;30;20076;-62
2021/06/06 11:15:53;;;;;;;13.20;2.90;;;26.30;35.40;;;;;;4768587;30;20543;-62
2021/06/06 11:18:22;;;;;;;10.23;2.65;;;26.30;35.60;;;;;;4767521;30;20096;-61
2021/06/06 11:21:06;;;;;;;14.57;2.53;;;26.30;35.80;;;;;;4768856;30;20072;-62
2021/06/06 11:23:40;;;;;;;9.57;2.60;;;26.30;35.80;;;;;;4768319;30;20860;-61
2021/06/06 11:26:19;;;;;;;13.98;2.85;;;26.30;36.00;;;;;;4768335;30;20159;-62
2021/06/06 11:28:47;;;;;;;10.88;2.88;;;26.40;36.30;;;;;;4768408;30;20076;-61
2021/06/06 11:31:27;;;;;;;14.40;2.95;;;26.40;36.50;;;;;;4768087;30;20084;-61
2021/06/06 11:34:03;;;;;;;13.88;3.10;;;26.40;36.70;;;;;;4768830;30;20168;-62
2021/06/06 11:36:42;;;;;;;11.57;3.45;;;26.50;36.50;;;;;;4768092;30;20108;-62
2021/06/06 11:39:13;;;;;;;9.32;3.10;;;26.40;36.80;;;;;;4768640;30;20080;-62
2021/06/06 11:41:43;;;;;;;17.00;3.55;;;26.40;37.30;;;;;;4768301;30;20076;-62
2021/06/06 11:44:19;;;;;;;13.52;3.50;;;26.40;37.50;;;;;;4768055;30;20123;-61
2021/06/06 11:47:09;;;;;;;14.02;3.90;;;26.40;37.40;;;;;;4768198;30;20100;-61
2021/06/06 11:49:49;;;;;;;12.80;3.42;;;26.30;38.00;;;;;;4767539;30;20076;-61
2021/06/06 11:52:35;;;;;;;18.52;3.65;;;26.20;38.10;;;;;;4768479;30;20080;-61
2021/06/06 11:55:27;;;;;;;12.10;3.45;;;26.30;38.10;;;;;;4768211;30;20086;-61
2021/06/06 11:58:21;;;;;;;9.63;3.42;;;26.30;38.10;;;;;;4766515;30;20116;-60
2021/06/06 12:01:05;;;;;;;20.45;4.40;;;26.20;38.40;;;;;;4767692;30;20083;-62
2021/06/06 12:03:39;;;;;;;13.32;4.50;;;26.00;38.80;;;;;;4767285;30;20179;-61
2021/06/06 12:06:14;;;;;;;15.68;4.57;;;25.80;39.30;;;;;;4767524;30;20099;-62
2021/06/06 12:08:56;;;;;;;18.80;4.40;;;25.80;39.70;;;;;;4767753;30;20080;-62
2021/06/06 12:11:26;;;;;;;22.17;5.18;;;25.80;39.80;;;;;;4767012;30;20080;-62
2021/06/06 12:14:15;;;;;;;16.33;3.70;;;25.60;40.00;;;;;;4767456;30;20127;-59
2021/06/06 12:16:56;;;;;;;15.00;4.38;;;25.60;40.30;;;;;;4764592;30;20099;-62
2021/06/06 12:19:36;;;;;;;22.95;4.80;;;25.80;40.10;;;;;;4767455;30;20088;-61
2021/06/06 12:22:19;;;;;;;17.45;4.50;;;25.80;39.80;;;;;;4768210;30;20527;-61
2021/06/06 12:24:59;;;;;;;14.85;4.07;;;25.80;39.80;;;;;;4767490;30;20087;-61
2021/06/06 12:27:27;;;;;;;13.35;4.63;;;25.80;39.90;;;;;;4767877;30;20084;-61
2021/06/06 12:29:59;;;;;;;18.25;4.45;;;25.80;39.90;;;;;;4767021;30;20076;-61
2021/06/06 12:32:32;;;;;;;12.48;4.60;;;25.80;40.10;;;;;;4767880;30;20088;-60
2021/06/06 12:35:12;;;;;;;18.77;5.32;;;25.80;40.20;;;;;;4767466;30;20135;-61
2021/06/06 12:37:40;;;;;;;19.35;5.43;;;25.70;40.40;;;;;;4770353;30;20200;-62
2021/06/06 12:40:07;;;;;;;23.23;5.72;;;25.70;40.20;;;;;;4771171;30;20084;-61
2021/06/06 12:42:34;;;;;;;23.65;5.78;;;25.60;40.40;;;;;;4770782;30;20535;-61
2021/06/06 12:45:06;;;;;;;17.67;5.05;;;25.40;41.10;;;;;;4770981;30;20104;-61
2021/06/06 12:47:39;;;;;;;15.65;5.10;;;25.50;41.30;;;;;;4771377;30;20084;-62
2021/06/06 12:50:11;;;;;;;19.50;4.82;;;25.50;41.50;;;;;;4770189;30;20099;-61
2021/06/06 12:52:44;;;;;;;21.73;5.20;;;25.60;41.10;;;;;;4770855;30;20079;-61
2021/06/06 12:55:24;;;;;;;20.05;5.82;;;25.60;41.10;;;;;;4770852;30;20084;-61
2021/06/06 12:57:57;;;;;;;21.10;5.90;;;25.40;41.30;;;;;;4770828;30;20080;-61
2021/06/06 13:00:33;;;;;;;22.00;5.50;;;25.30;41.60;;;;;;4771018;30;20085;-61
2021/06/06 13:03:15;;;;;;;16.65;5.03;;;25.20;42.00;;;;;;4769125;30;20522;-62
2021/06/06 13:05:45;;;;;;;22.23;5.03;;;25.10;42.00;;;;;;4770521;30;20551;-61
2021/06/06 13:08:28;;;;;;;14.55;5.07;;;25.10;42.10;;;;;;4770670;30;20107;-61
2021/06/06 13:11:03;;;;;;;26.20;5.60;;;25.10;42.00;;;;;;4770087;30;20087;-60
2021/06/06 13:13:40;;;;;;;22.48;5.35;;;24.90;42.70;;;;;;4770386;30;20103;-61
2021/06/06 13:16:28;;;;;;;21.52;5.45;;;25.00;42.70;;;;;;4770983;30;20163;-61
2021/06/06 13:19:18;;;;;;;18.30;5.88;;;25.00;42.90;;;;;;4770280;30;20084;-62
2021/06/06 13:22:09;;;;;;;15.93;6.05;;;24.90;42.70;;;;;;4769888;30;20080;-61
2021/06/06 13:24:45;;;;;;;19.60;6.03;;;24.80;42.90;;;;;;4770308;30;20098;-62
2021/06/06 13:27:25;;;;;;;25.13;6.35;;;24.80;43.10;;;;;;4769359;30;20443;-60
2021/06/06 13:29:54;;;;;;;21.83;6.75;;;24.80;42.90;;;;;;4768609;30;20086;-60
2021/06/06 13:32:32;;;;;;;19.30;6.28;;;24.80;42.80;;;;;;4770319;30;20167;-61
2021/06/06 13:35:01;;;;;;;20.02;6.50;;;24.80;42.80;;;;;;4770465;30;20087;-61
2021/06/06 13:37:31;;;;;;;22.38;7.00;;;24.80;42.80;;;;;;4769596;30;20128;-61
2021/06/06 13:40:12;;;;;;;17.73;6.15;;;24.90;43.50;;;;;;4770097;30;20104;-61
2021/06/06 13:42:42;;;;;;;33.42;5.80;;;24.90;42.90;;;;;;4770078;30;20098;-61
2021/06/06 13:45:13;;;;;;;30.08;5.60;;;24.90;43.00;;;;;;4768889;30;20082;-59
2021/06/06 13:47:40;;;;;;;18.35;5.25;;;25.10;43.30;;;;;;4769323;30;20103;-62
2021/06/06 13:50:09;;;;;;;30.92;7.07;;;25.00;42.50;;;;;;4769908;30;20483;-60
2021/06/06 13:52:36;;;;;;;19.38;5.97;;;25.10;42.40;;;;;;4769635;30;20081;-61
2021/06/06 13:55:10;;;;;;;24.67;6.32;;;25.20;42.20;;;;;;4769819;30;20598;-62
2021/06/06 13:57:36;;;;;;;22.20;6.72;;;25.30;42.00;;;;;;4770089;30;20080;-59
2021/06/06 14:00:11;;;;;;;22.92;6.47;;;25.30;42.00;;;;;;4769922;30;20076;-60
2021/06/06 14:02:45;;;;;;;23.13;7.03;;;25.30;42.30;;;;;;4769292;30;20083;-60
2021/06/06 14:05:14;;;;;;;25.08;7.15;;;25.40;42.30;;;;;;4769639;30;20091;-61
2021/06/06 14:07:41;;;;;;;30.92;7.05;;;25.50;42.30;;;;;;4769625;30;20157;-62
2021/06/06 14:10:10;;;;;;;35.10;6.90;;;25.60;42.40;;;;;;4769633;30;20084;-62